Terminal Aerodrome Forecast
Issued by NWS

Home | Current Version | Previous Version | Text Only | Print | Product List | Glossary On
Versions: 1 2 3 4 5 6 7 8 9 10 11 12 13 14 15 16 17 18
000
FTAK31 PAJN 211700
TAFAWG
TAF
PAWG 211730Z 2118/2218 12008KT P6SM -RA BKN050 OVC100
     FM212200 13015G25KT 6SM -SHRA BR SCT020 OVC040 WS020/15035KT
     FM220200 19012G20KT P6SM -SHRA SCT015 OVC030 WS020/18035KT
     FM220600 16012KT P6SM -SHRA SCT015 OVC030
     FM221200 13007KT P6SM -SHRA SCT015 OVC030
      AMD LTD TO CLD VIS AND WIND 2206/2215=

USA.gov is the U.S. government's official web portal to all federal, state and local government web resources and services.